sensor_id;sensor_type;location;lat;lon;timestamp;P1;durP1;ratioP1;P2;durP2;ratioP2
52210;SDS011;38179;52.756;6.906;2023-12-29T00:01:56;16.70;;;9.95;;
52210;SDS011;38179;52.756;6.906;2023-12-29T00:04:24;18.58;;;9.98;;
52210;SDS011;38179;52.756;6.906;2023-12-29T00:06:53;13.70;;;9.02;;
52210;SDS011;38179;52.756;6.906;2023-12-29T00:09:20;13.73;;;8.95;;
52210;SDS011;38179;52.756;6.906;2023-12-29T00:11:47;18.23;;;9.68;;
52210;SDS011;38179;52.756;6.906;2023-12-29T00:14:14;14.00;;;9.43;;
52210;SDS011;38179;52.756;6.906;2023-12-29T00:16:40;16.65;;;9.00;;
52210;SDS011;38179;52.756;6.906;2023-12-29T00:19:06;16.60;;;9.70;;
52210;SDS011;38179;52.756;6.906;2023-12-29T00:21:32;18.20;;;10.45;;
52210;SDS011;38179;52.756;6.906;2023-12-29T00:23:58;14.73;;;9.65;;
52210;SDS011;38179;52.756;6.906;2023-12-29T00:26:24;15.73;;;9.50;;
52210;SDS011;38179;52.756;6.906;2023-12-29T00:28:50;15.13;;;9.93;;
52210;SDS011;38179;52.756;6.906;2023-12-29T00:31:16;19.20;;;9.88;;
52210;SDS011;38179;52.756;6.906;2023-12-29T00:33:42;12.73;;;9.65;;
52210;SDS011;38179;52.756;6.906;2023-12-29T00:36:14;18.90;;;10.00;;
52210;SDS011;38179;52.756;6.906;2023-12-29T00:38:43;17.02;;;9.52;;
52210;SDS011;38179;52.756;6.906;2023-12-29T00:41:09;20.80;;;10.20;;
52210;SDS011;38179;52.756;6.906;2023-12-29T00:43:35;21.23;;;11.18;;
52210;SDS011;38179;52.756;6.906;2023-12-29T00:46:02;17.00;;;9.85;;
52210;SDS011;38179;52.756;6.906;2023-12-29T00:48:29;17.15;;;10.63;;
52210;SDS011;38179;52.756;6.906;2023-12-29T00:50:55;18.83;;;9.85;;
52210;SDS011;38179;52.756;6.906;2023-12-29T00:53:21;14.65;;;9.63;;
52210;SDS011;38179;52.756;6.906;2023-12-29T00:55:47;17.00;;;9.30;;
52210;SDS011;38179;52.756;6.906;2023-12-29T00:58:13;16.15;;;9.40;;
52210;SDS011;38179;52.756;6.906;2023-12-29T01:00:39;24.58;;;10.18;;
52210;SDS011;38179;52.756;6.906;2023-12-29T01:03:05;18.65;;;9.68;;
52210;SDS011;38179;52.756;6.906;2023-12-29T01:05:31;13.45;;;9.65;;
52210;SDS011;38179;52.756;6.906;2023-12-29T01:07:57;15.82;;;10.30;;
52210;SDS011;38179;52.756;6.906;2023-12-29T01:10:23;16.80;;;10.40;;
52210;SDS011;38179;52.756;6.906;2023-12-29T01:12:48;15.63;;;10.07;;
52210;SDS011;38179;52.756;6.906;2023-12-29T01:15:14;19.00;;;10.30;;
52210;SDS011;38179;52.756;6.906;2023-12-29T01:17:40;19.55;;;10.50;;
52210;SDS011;38179;52.756;6.906;2023-12-29T01:20:06;16.67;;;10.38;;
52210;SDS011;38179;52.756;6.906;2023-12-29T01:22:33;16.13;;;10.13;;
52210;SDS011;38179;52.756;6.906;2023-12-29T01:24:59;17.65;;;10.18;;
52210;SDS011;38179;52.756;6.906;2023-12-29T01:27:26;19.42;;;10.32;;
52210;SDS011;38179;52.756;6.906;2023-12-29T01:29:52;17.40;;;9.60;;
52210;SDS011;38179;52.756;6.906;2023-12-29T01:32:19;19.38;;;10.40;;
52210;SDS011;38179;52.756;6.906;2023-12-29T01:34:45;15.93;;;10.15;;
52210;SDS011;38179;52.756;6.906;2023-12-29T01:37:11;15.48;;;9.48;;
52210;SDS011;38179;52.756;6.906;2023-12-29T01:39:37;24.45;;;10.45;;
52210;SDS011;38179;52.756;6.906;2023-12-29T01:42:03;13.25;;;9.20;;
52210;SDS011;38179;52.756;6.906;2023-12-29T01:44:29;15.90;;;9.68;;
52210;SDS011;38179;52.756;6.906;2023-12-29T01:46:56;15.02;;;10.18;;
52210;SDS011;38179;52.756;6.906;2023-12-29T01:49:24;17.88;;;10.10;;
52210;SDS011;38179;52.756;6.906;2023-12-29T01:51:52;17.45;;;9.98;;
52210;SDS011;38179;52.756;6.906;2023-12-29T01:54:20;13.77;;;9.93;;
52210;SDS011;38179;52.756;6.906;2023-12-29T01:56:48;14.27;;;9.82;;
52210;SDS011;38179;52.756;6.906;2023-12-29T01:59:16;16.83;;;9.90;;
52210;SDS011;38179;52.756;6.906;2023-12-29T02:01:43;20.23;;;10.73;;
52210;SDS011;38179;52.756;6.906;2023-12-29T02:04:11;15.05;;;9.45;;
52210;SDS011;38179;52.756;6.906;2023-12-29T02:06:39;13.43;;;9.37;;
52210;SDS011;38179;52.756;6.906;2023-12-29T02:09:05;17.42;;;9.75;;
52210;SDS011;38179;52.756;6.906;2023-12-29T02:11:31;15.05;;;10.30;;
52210;SDS011;38179;52.756;6.906;2023-12-29T02:14:00;15.40;;;10.10;;
52210;SDS011;38179;52.756;6.906;2023-12-29T02:19:16;16.02;;;9.60;;
52210;SDS011;38179;52.756;6.906;2023-12-29T02:21:56;15.55;;;10.00;;
52210;SDS011;38179;52.756;6.906;2023-12-29T02:24:22;19.25;;;9.85;;
52210;SDS011;38179;52.756;6.906;2023-12-29T02:26:50;16.65;;;9.80;;
52210;SDS011;38179;52.756;6.906;2023-12-29T02:29:20;18.33;;;10.15;;
52210;SDS011;38179;52.756;6.906;2023-12-29T02:31:50;15.15;;;9.68;;
52210;SDS011;38179;52.756;6.906;2023-12-29T02:34:21;17.05;;;9.38;;
52210;SDS011;38179;52.756;6.906;2023-12-29T02:36:48;15.63;;;8.77;;
52210;SDS011;38179;52.756;6.906;2023-12-29T02:39:16;15.48;;;9.35;;
52210;SDS011;38179;52.756;6.906;2023-12-29T02:41:42;17.50;;;10.40;;
52210;SDS011;38179;52.756;6.906;2023-12-29T02:44:08;14.35;;;8.68;;
52210;SDS011;38179;52.756;6.906;2023-12-29T02:46:34;15.85;;;9.60;;
52210;SDS011;38179;52.756;6.906;2023-12-29T02:49:00;16.05;;;9.35;;
52210;SDS011;38179;52.756;6.906;2023-12-29T02:51:26;12.75;;;9.52;;
52210;SDS011;38179;52.756;6.906;2023-12-29T02:53:52;14.52;;;9.80;;
52210;SDS011;38179;52.756;6.906;2023-12-29T02:56:18;15.88;;;9.00;;
52210;SDS011;38179;52.756;6.906;2023-12-29T02:58:43;12.40;;;9.45;;
52210;SDS011;38179;52.756;6.906;2023-12-29T03:01:11;16.65;;;9.55;;
52210;SDS011;38179;52.756;6.906;2023-12-29T03:03:37;16.27;;;9.93;;
52210;SDS011;38179;52.756;6.906;2023-12-29T03:06:05;14.35;;;8.77;;
52210;SDS011;38179;52.756;6.906;2023-12-29T03:08:31;14.50;;;9.60;;
52210;SDS011;38179;52.756;6.906;2023-12-29T03:10:57;18.48;;;10.00;;
52210;SDS011;38179;52.756;6.906;2023-12-29T03:13:24;18.45;;;10.00;;
52210;SDS011;38179;52.756;6.906;2023-12-29T03:15:50;18.33;;;10.63;;
52210;SDS011;38179;52.756;6.906;2023-12-29T03:18:16;11.85;;;9.13;;
52210;SDS011;38179;52.756;6.906;2023-12-29T03:20:42;14.18;;;9.60;;
52210;SDS011;38179;52.756;6.906;2023-12-29T03:23:07;14.50;;;9.65;;
52210;SDS011;38179;52.756;6.906;2023-12-29T03:25:33;16.20;;;9.95;;
52210;SDS011;38179;52.756;6.906;2023-12-29T03:27:59;17.38;;;9.50;;
52210;SDS011;38179;52.756;6.906;2023-12-29T03:30:25;15.65;;;9.35;;
52210;SDS011;38179;52.756;6.906;2023-12-29T03:32:51;16.17;;;10.00;;
52210;SDS011;38179;52.756;6.906;2023-12-29T03:35:17;17.30;;;10.27;;
52210;SDS011;38179;52.756;6.906;2023-12-29T03:37:43;13.32;;;8.95;;
52210;SDS011;38179;52.756;6.906;2023-12-29T03:40:09;13.68;;;9.07;;
52210;SDS011;38179;52.756;6.906;2023-12-29T03:42:35;15.57;;;9.80;;
52210;SDS011;38179;52.756;6.906;2023-12-29T03:45:01;14.68;;;9.77;;
52210;SDS011;38179;52.756;6.906;2023-12-29T03:47:27;14.63;;;9.57;;
52210;SDS011;38179;52.756;6.906;2023-12-29T03:49:53;13.73;;;9.60;;
52210;SDS011;38179;52.756;6.906;2023-12-29T03:52:19;15.98;;;10.20;;
52210;SDS011;38179;52.756;6.906;2023-12-29T03:54:45;14.88;;;9.43;;
52210;SDS011;38179;52.756;6.906;2023-12-29T03:57:10;14.27;;;9.25;;
52210;SDS011;38179;52.756;6.906;2023-12-29T03:59:36;14.20;;;9.10;;
52210;SDS011;38179;52.756;6.906;2023-12-29T04:02:03;15.77;;;9.18;;
52210;SDS011;38179;52.756;6.906;2023-12-29T04:04:28;14.15;;;9.57;;
52210;SDS011;38179;52.756;6.906;2023-12-29T04:06:54;14.05;;;9.30;;
52210;SDS011;38179;52.756;6.906;2023-12-29T04:09:20;14.25;;;10.30;;
52210;SDS011;38179;52.756;6.906;2023-12-29T04:11:46;18.63;;;9.75;;
52210;SDS011;38179;52.756;6.906;2023-12-29T04:14:12;12.38;;;9.68;;
52210;SDS011;38179;52.756;6.906;2023-12-29T04:16:38;19.38;;;10.18;;
52210;SDS011;38179;52.756;6.906;2023-12-29T04:19:04;18.65;;;10.25;;
52210;SDS011;38179;52.756;6.906;2023-12-29T04:21:30;16.95;;;9.02;;
52210;SDS011;38179;52.756;6.906;2023-12-29T04:23:56;16.88;;;9.90;;
52210;SDS011;38179;52.756;6.906;2023-12-29T04:26:22;17.55;;;10.52;;
52210;SDS011;38179;52.756;6.906;2023-12-29T04:28:48;24.08;;;10.15;;
52210;SDS011;38179;52.756;6.906;2023-12-29T04:31:14;18.58;;;10.68;;
52210;SDS011;38179;52.756;6.906;2023-12-29T04:33:40;16.58;;;9.85;;
52210;SDS011;38179;52.756;6.906;2023-12-29T04:36:05;22.45;;;10.70;;
52210;SDS011;38179;52.756;6.906;2023-12-29T04:38:31;16.23;;;9.65;;
52210;SDS011;38179;52.756;6.906;2023-12-29T04:40:57;16.77;;;9.98;;
52210;SDS011;38179;52.756;6.906;2023-12-29T04:43:23;23.17;;;10.57;;
52210;SDS011;38179;52.756;6.906;2023-12-29T04:45:49;18.20;;;10.55;;
52210;SDS011;38179;52.756;6.906;2023-12-29T04:48:15;22.02;;;10.23;;
52210;SDS011;38179;52.756;6.906;2023-12-29T04:50:41;20.27;;;10.20;;
52210;SDS011;38179;52.756;6.906;2023-12-29T04:53:07;16.83;;;9.40;;
52210;SDS011;38179;52.756;6.906;2023-12-29T04:55:33;19.00;;;10.30;;
52210;SDS011;38179;52.756;6.906;2023-12-29T04:57:59;16.58;;;9.82;;
52210;SDS011;38179;52.756;6.906;2023-12-29T05:00:24;20.70;;;10.70;;
52210;SDS011;38179;52.756;6.906;2023-12-29T05:02:50;14.50;;;9.23;;
52210;SDS011;38179;52.756;6.906;2023-12-29T05:05:16;18.67;;;10.40;;
52210;SDS011;38179;52.756;6.906;2023-12-29T05:07:42;17.52;;;9.70;;
52210;SDS011;38179;52.756;6.906;2023-12-29T05:10:08;18.35;;;9.85;;
52210;SDS011;38179;52.756;6.906;2023-12-29T05:12:34;18.92;;;10.05;;
52210;SDS011;38179;52.756;6.906;2023-12-29T05:15:00;21.15;;;10.50;;
52210;SDS011;38179;52.756;6.906;2023-12-29T05:17:25;17.10;;;9.98;;
52210;SDS011;38179;52.756;6.906;2023-12-29T05:19:51;17.25;;;10.20;;
52210;SDS011;38179;52.756;6.906;2023-12-29T05:22:17;19.48;;;9.02;;
52210;SDS011;38179;52.756;6.906;2023-12-29T05:24:43;16.77;;;9.52;;
52210;SDS011;38179;52.756;6.906;2023-12-29T05:27:10;15.85;;;9.52;;
52210;SDS011;38179;52.756;6.906;2023-12-29T05:29:36;24.20;;;10.50;;
52210;SDS011;38179;52.756;6.906;2023-12-29T05:32:03;21.65;;;10.32;;
52210;SDS011;38179;52.756;6.906;2023-12-29T05:34:29;19.65;;;10.20;;
52210;SDS011;38179;52.756;6.906;2023-12-29T05:36:55;21.83;;;10.60;;
52210;SDS011;38179;52.756;6.906;2023-12-29T05:39:21;24.98;;;10.60;;
52210;SDS011;38179;52.756;6.906;2023-12-29T05:41:47;17.20;;;9.55;;
52210;SDS011;38179;52.756;6.906;2023-12-29T05:44:13;21.30;;;10.65;;
52210;SDS011;38179;52.756;6.906;2023-12-29T05:46:39;17.80;;;10.27;;
52210;SDS011;38179;52.756;6.906;2023-12-29T05:49:05;18.50;;;10.40;;
52210;SDS011;38179;52.756;6.906;2023-12-29T05:51:30;24.08;;;10.13;;
52210;SDS011;38179;52.756;6.906;2023-12-29T05:53:56;22.85;;;10.32;;
52210;SDS011;38179;52.756;6.906;2023-12-29T05:56:22;19.70;;;10.40;;
52210;SDS011;38179;52.756;6.906;2023-12-29T05:58:48;23.58;;;10.90;;
52210;SDS011;38179;52.756;6.906;2023-12-29T06:01:14;19.85;;;10.23;;
52210;SDS011;38179;52.756;6.906;2023-12-29T06:03:40;24.27;;;10.75;;
52210;SDS011;38179;52.756;6.906;2023-12-29T06:06:06;24.15;;;10.52;;
52210;SDS011;38179;52.756;6.906;2023-12-29T06:08:32;19.70;;;10.00;;
52210;SDS011;38179;52.756;6.906;2023-12-29T06:10:58;20.73;;;9.93;;
52210;SDS011;38179;52.756;6.906;2023-12-29T06:13:24;24.88;;;11.13;;
52210;SDS011;38179;52.756;6.906;2023-12-29T06:15:50;20.88;;;10.60;;
52210;SDS011;38179;52.756;6.906;2023-12-29T06:18:16;17.27;;;9.85;;
52210;SDS011;38179;52.756;6.906;2023-12-29T06:20:42;24.73;;;10.93;;
52210;SDS011;38179;52.756;6.906;2023-12-29T06:23:08;20.75;;;10.07;;
52210;SDS011;38179;52.756;6.906;2023-12-29T06:25:34;25.35;;;10.20;;
52210;SDS011;38179;52.756;6.906;2023-12-29T06:28:00;21.70;;;11.88;;
52210;SDS011;38179;52.756;6.906;2023-12-29T06:30:26;18.00;;;10.23;;
52210;SDS011;38179;52.756;6.906;2023-12-29T06:32:52;21.60;;;10.77;;
52210;SDS011;38179;52.756;6.906;2023-12-29T06:35:17;23.30;;;10.85;;
52210;SDS011;38179;52.756;6.906;2023-12-29T06:37:43;19.55;;;10.63;;
52210;SDS011;38179;52.756;6.906;2023-12-29T06:40:09;22.25;;;10.68;;
52210;SDS011;38179;52.756;6.906;2023-12-29T06:42:36;19.88;;;9.88;;
52210;SDS011;38179;52.756;6.906;2023-12-29T06:45:02;22.08;;;10.82;;
52210;SDS011;38179;52.756;6.906;2023-12-29T06:47:28;23.33;;;10.63;;
52210;SDS011;38179;52.756;6.906;2023-12-29T06:49:54;22.20;;;11.38;;
52210;SDS011;38179;52.756;6.906;2023-12-29T06:52:20;28.20;;;10.93;;
52210;SDS011;38179;52.756;6.906;2023-12-29T06:54:46;24.40;;;11.40;;
52210;SDS011;38179;52.756;6.906;2023-12-29T07:00:10;24.08;;;10.90;;
52210;SDS011;38179;52.756;6.906;2023-12-29T07:02:39;22.70;;;10.38;;
52210;SDS011;38179;52.756;6.906;2023-12-29T07:05:07;27.70;;;11.07;;
52210;SDS011;38179;52.756;6.906;2023-12-29T07:07:34;27.08;;;11.95;;
52210;SDS011;38179;52.756;6.906;2023-12-29T07:10:02;28.30;;;10.85;;
52210;SDS011;38179;52.756;6.906;2023-12-29T07:12:29;23.27;;;11.05;;
52210;SDS011;38179;52.756;6.906;2023-12-29T07:14:55;21.85;;;10.23;;
52210;SDS011;38179;52.756;6.906;2023-12-29T07:17:21;22.02;;;10.80;;
52210;SDS011;38179;52.756;6.906;2023-12-29T07:19:47;29.25;;;11.50;;
52210;SDS011;38179;52.756;6.906;2023-12-29T07:22:13;25.75;;;10.48;;
52210;SDS011;38179;52.756;6.906;2023-12-29T07:24:39;28.85;;;10.85;;
52210;SDS011;38179;52.756;6.906;2023-12-29T07:27:06;21.73;;;10.50;;
52210;SDS011;38179;52.756;6.906;2023-12-29T07:29:33;22.52;;;10.27;;
52210;SDS011;38179;52.756;6.906;2023-12-29T07:31:59;27.27;;;11.60;;
52210;SDS011;38179;52.756;6.906;2023-12-29T07:34:25;27.25;;;11.95;;
52210;SDS011;38179;52.756;6.906;2023-12-29T07:36:51;27.00;;;12.35;;
52210;SDS011;38179;52.756;6.906;2023-12-29T07:39:17;26.63;;;11.15;;
52210;SDS011;38179;52.756;6.906;2023-12-29T07:41:43;27.08;;;11.57;;
52210;SDS011;38179;52.756;6.906;2023-12-29T07:44:10;21.02;;;10.23;;
52210;SDS011;38179;52.756;6.906;2023-12-29T07:46:39;27.20;;;11.77;;
52210;SDS011;38179;52.756;6.906;2023-12-29T07:49:05;25.40;;;11.65;;
52210;SDS011;38179;52.756;6.906;2023-12-29T07:51:31;24.95;;;11.50;;
52210;SDS011;38179;52.756;6.906;2023-12-29T07:53:57;22.20;;;10.85;;
52210;SDS011;38179;52.756;6.906;2023-12-29T07:56:23;18.88;;;10.85;;
52210;SDS011;38179;52.756;6.906;2023-12-29T07:58:49;20.25;;;10.90;;
52210;SDS011;38179;52.756;6.906;2023-12-29T08:01:15;27.35;;;11.43;;
52210;SDS011;38179;52.756;6.906;2023-12-29T08:03:42;21.50;;;10.52;;
52210;SDS011;38179;52.756;6.906;2023-12-29T08:06:08;21.17;;;10.95;;
52210;SDS011;38179;52.756;6.906;2023-12-29T08:08:34;19.73;;;10.90;;
52210;SDS011;38179;52.756;6.906;2023-12-29T08:11:00;16.70;;;9.82;;
52210;SDS011;38179;52.756;6.906;2023-12-29T08:13:26;20.10;;;10.70;;
52210;SDS011;38179;52.756;6.906;2023-12-29T08:15:52;21.02;;;9.95;;
52210;SDS011;38179;52.756;6.906;2023-12-29T08:18:18;23.55;;;11.48;;
52210;SDS011;38179;52.756;6.906;2023-12-29T08:20:44;20.13;;;9.65;;
52210;SDS011;38179;52.756;6.906;2023-12-29T08:23:10;18.00;;;10.88;;
52210;SDS011;38179;52.756;6.906;2023-12-29T08:25:36;21.90;;;10.02;;
52210;SDS011;38179;52.756;6.906;2023-12-29T08:28:02;22.00;;;10.15;;
52210;SDS011;38179;52.756;6.906;2023-12-29T08:30:28;19.33;;;10.10;;
52210;SDS011;38179;52.756;6.906;2023-12-29T08:32:54;18.85;;;10.00;;
52210;SDS011;38179;52.756;6.906;2023-12-29T08:35:20;21.48;;;11.65;;
52210;SDS011;38179;52.756;6.906;2023-12-29T08:37:46;25.45;;;11.10;;
52210;SDS011;38179;52.756;6.906;2023-12-29T08:40:12;27.70;;;11.18;;
52210;SDS011;38179;52.756;6.906;2023-12-29T08:42:38;21.98;;;10.30;;
52210;SDS011;38179;52.756;6.906;2023-12-29T08:45:04;20.15;;;10.65;;
52210;SDS011;38179;52.756;6.906;2023-12-29T08:47:30;23.15;;;11.02;;
52210;SDS011;38179;52.756;6.906;2023-12-29T08:49:56;24.33;;;10.57;;
52210;SDS011;38179;52.756;6.906;2023-12-29T08:52:22;23.52;;;11.18;;
52210;SDS011;38179;52.756;6.906;2023-12-29T08:54:48;20.55;;;10.13;;
52210;SDS011;38179;52.756;6.906;2023-12-29T08:57:14;21.83;;;11.80;;
52210;SDS011;38179;52.756;6.906;2023-12-29T08:59:40;21.73;;;10.70;;
52210;SDS011;38179;52.756;6.906;2023-12-29T09:02:06;21.30;;;11.13;;
52210;SDS011;38179;52.756;6.906;2023-12-29T09:04:31;21.17;;;10.27;;
52210;SDS011;38179;52.756;6.906;2023-12-29T09:06:57;18.33;;;10.20;;
52210;SDS011;38179;52.756;6.906;2023-12-29T09:09:23;20.42;;;10.00;;
52210;SDS011;38179;52.756;6.906;2023-12-29T09:11:49;16.35;;;9.25;;
52210;SDS011;38179;52.756;6.906;2023-12-29T09:14:15;20.10;;;10.02;;
52210;SDS011;38179;52.756;6.906;2023-12-29T09:16:41;21.30;;;9.95;;
52210;SDS011;38179;52.756;6.906;2023-12-29T09:19:08;20.02;;;9.68;;
52210;SDS011;38179;52.756;6.906;2023-12-29T09:21:33;16.10;;;9.32;;
52210;SDS011;38179;52.756;6.906;2023-12-29T09:23:59;15.32;;;9.70;;
52210;SDS011;38179;52.756;6.906;2023-12-29T09:26:25;19.15;;;9.60;;
52210;SDS011;38179;52.756;6.906;2023-12-29T09:28:51;17.23;;;10.00;;
52210;SDS011;38179;52.756;6.906;2023-12-29T09:31:17;12.90;;;9.60;;
52210;SDS011;38179;52.756;6.906;2023-12-29T09:33:43;11.02;;;9.40;;
52210;SDS011;38179;52.756;6.906;2023-12-29T09:36:09;16.67;;;9.50;;
52210;SDS011;38179;52.756;6.906;2023-12-29T09:38:35;15.25;;;9.23;;
52210;SDS011;38179;52.756;6.906;2023-12-29T09:41:04;13.95;;;9.07;;
52210;SDS011;38179;52.756;6.906;2023-12-29T09:43:33;15.73;;;9.98;;
52210;SDS011;38179;52.756;6.906;2023-12-29T09:46:01;18.98;;;9.55;;
52210;SDS011;38179;52.756;6.906;2023-12-29T09:48:28;15.02;;;9.88;;
52210;SDS011;38179;52.756;6.906;2023-12-29T09:50:56;13.18;;;9.23;;
52210;SDS011;38179;52.756;6.906;2023-12-29T09:53:23;12.73;;;9.13;;
52210;SDS011;38179;52.756;6.906;2023-12-29T09:55:50;14.48;;;9.80;;
52210;SDS011;38179;52.756;6.906;2023-12-29T09:58:19;12.65;;;9.43;;
52210;SDS011;38179;52.756;6.906;2023-12-29T10:00:48;10.55;;;8.77;;
52210;SDS011;38179;52.756;6.906;2023-12-29T10:03:15;11.25;;;8.15;;
52210;SDS011;38179;52.756;6.906;2023-12-29T10:05:41;12.23;;;8.65;;
52210;SDS011;38179;52.756;6.906;2023-12-29T10:08:08;11.55;;;8.57;;
52210;SDS011;38179;52.756;6.906;2023-12-29T10:10:35;13.95;;;9.02;;
52210;SDS011;38179;52.756;6.906;2023-12-29T10:13:03;13.60;;;8.60;;
52210;SDS011;38179;52.756;6.906;2023-12-29T10:15:37;13.35;;;8.70;;
52210;SDS011;38179;52.756;6.906;2023-12-29T10:18:23;10.02;;;8.30;;
52210;SDS011;38179;52.756;6.906;2023-12-29T10:24:00;12.68;;;8.57;;
52210;SDS011;38179;52.756;6.906;2023-12-29T10:26:30;11.40;;;8.90;;
52210;SDS011;38179;52.756;6.906;2023-12-29T10:28:57;12.63;;;8.85;;
52210;SDS011;38179;52.756;6.906;2023-12-29T10:31:24;9.73;;;8.20;;
52210;SDS011;38179;52.756;6.906;2023-12-29T10:33:51;10.88;;;8.38;;
52210;SDS011;38179;52.756;6.906;2023-12-29T10:36:17;14.32;;;7.88;;
52210;SDS011;38179;52.756;6.906;2023-12-29T10:38:43;8.50;;;7.70;;
52210;SDS011;38179;52.756;6.906;2023-12-29T10:43:46;8.85;;;7.85;;
52210;SDS011;38179;52.756;6.906;2023-12-29T10:46:17;8.07;;;7.28;;
52210;SDS011;38179;52.756;6.906;2023-12-29T10:48:44;7.85;;;7.10;;
52210;SDS011;38179;52.756;6.906;2023-12-29T10:51:10;8.07;;;7.28;;
52210;SDS011;38179;52.756;6.906;2023-12-29T10:53:37;9.27;;;7.40;;
52210;SDS011;38179;52.756;6.906;2023-12-29T10:56:03;8.52;;;7.60;;
52210;SDS011;38179;52.756;6.906;2023-12-29T10:58:35;7.90;;;7.07;;
52210;SDS011;38179;52.756;6.906;2023-12-29T11:01:02;7.88;;;7.07;;
52210;SDS011;38179;52.756;6.906;2023-12-29T11:03:40;7.90;;;7.13;;
52210;SDS011;38179;52.756;6.906;2023-12-29T11:06:06;8.27;;;7.45;;
52210;SDS011;38179;52.756;6.906;2023-12-29T11:08:32;8.77;;;7.55;;
52210;SDS011;38179;52.756;6.906;2023-12-29T11:11:01;8.45;;;7.60;;
52210;SDS011;38179;52.756;6.906;2023-12-29T11:13:28;9.88;;;7.97;;
52210;SDS011;38179;52.756;6.906;2023-12-29T11:15:55;9.00;;;7.55;;
52210;SDS011;38179;52.756;6.906;2023-12-29T11:18:22;9.82;;;7.68;;
52210;SDS011;38179;52.756;6.906;2023-12-29T11:20:48;9.05;;;7.53;;
52210;SDS011;38179;52.756;6.906;2023-12-29T11:23:14;10.90;;;7.90;;
52210;SDS011;38179;52.756;6.906;2023-12-29T11:25:44;9.73;;;7.97;;
52210;SDS011;38179;52.756;6.906;2023-12-29T11:28:13;13.27;;;8.13;;
52210;SDS011;38179;52.756;6.906;2023-12-29T11:30:40;13.32;;;8.32;;
52210;SDS011;38179;52.756;6.906;2023-12-29T11:33:08;15.07;;;8.90;;
52210;SDS011;38179;52.756;6.906;2023-12-29T11:36:00;13.35;;;8.88;;
52210;SDS011;38179;52.756;6.906;2023-12-29T11:38:37;12.98;;;9.07;;
52210;SDS011;38179;52.756;6.906;2023-12-29T11:44:13;12.85;;;8.70;;
52210;SDS011;38179;52.756;6.906;2023-12-29T11:46:53;12.45;;;9.00;;
52210;SDS011;38179;52.756;6.906;2023-12-29T11:49:19;11.45;;;8.55;;
52210;SDS011;38179;52.756;6.906;2023-12-29T11:51:48;11.95;;;9.35;;
52210;SDS011;38179;52.756;6.906;2023-12-29T11:54:25;18.80;;;9.57;;
52210;SDS011;38179;52.756;6.906;2023-12-29T11:56:54;17.05;;;9.43;;
52210;SDS011;38179;52.756;6.906;2023-12-29T12:01:52;14.70;;;9.70;;
52210;SDS011;38179;52.756;6.906;2023-12-29T12:04:39;15.52;;;9.70;;
52210;SDS011;38179;52.756;6.906;2023-12-29T12:09:58;23.77;;;10.25;;
52210;SDS011;38179;52.756;6.906;2023-12-29T12:12:56;13.57;;;9.50;;
52210;SDS011;38179;52.756;6.906;2023-12-29T12:17:52;17.15;;;9.95;;
52210;SDS011;38179;52.756;6.906;2023-12-29T12:20:18;19.83;;;9.77;;
52210;SDS011;38179;52.756;6.906;2023-12-29T12:22:44;16.13;;;9.48;;
52210;SDS011;38179;52.756;6.906;2023-12-29T12:25:15;17.17;;;9.20;;
52210;SDS011;38179;52.756;6.906;2023-12-29T12:27:42;13.45;;;9.05;;
52210;SDS011;38179;52.756;6.906;2023-12-29T12:30:08;18.85;;;10.23;;
52210;SDS011;38179;52.756;6.906;2023-12-29T12:32:35;16.20;;;9.52;;
52210;SDS011;38179;52.756;6.906;2023-12-29T12:35:01;16.92;;;9.75;;
52210;SDS011;38179;52.756;6.906;2023-12-29T12:37:29;13.77;;;9.20;;
52210;SDS011;38179;52.756;6.906;2023-12-29T12:39:55;15.38;;;9.43;;
52210;SDS011;38179;52.756;6.906;2023-12-29T12:42:22;12.55;;;9.30;;
52210;SDS011;38179;52.756;6.906;2023-12-29T12:44:49;16.75;;;9.57;;
52210;SDS011;38179;52.756;6.906;2023-12-29T12:47:29;14.10;;;9.00;;
52210;SDS011;38179;52.756;6.906;2023-12-29T12:50:00;17.48;;;9.68;;
52210;SDS011;38179;52.756;6.906;2023-12-29T12:52:30;12.65;;;8.75;;
52210;SDS011;38179;52.756;6.906;2023-12-29T12:55:00;17.27;;;9.75;;
52210;SDS011;38179;52.756;6.906;2023-12-29T12:57:26;15.68;;;9.20;;
52210;SDS011;38179;52.756;6.906;2023-12-29T12:59:52;20.55;;;9.88;;
52210;SDS011;38179;52.756;6.906;2023-12-29T13:02:19;15.75;;;9.80;;
52210;SDS011;38179;52.756;6.906;2023-12-29T13:04:46;18.52;;;9.68;;
52210;SDS011;38179;52.756;6.906;2023-12-29T13:07:16;14.50;;;9.32;;
52210;SDS011;38179;52.756;6.906;2023-12-29T13:09:43;15.93;;;9.40;;
52210;SDS011;38179;52.756;6.906;2023-12-29T13:12:11;16.02;;;9.27;;
52210;SDS011;38179;52.756;6.906;2023-12-29T13:14:38;13.50;;;9.95;;
52210;SDS011;38179;52.756;6.906;2023-12-29T13:17:08;18.83;;;9.95;;
52210;SDS011;38179;52.756;6.906;2023-12-29T13:19:39;19.38;;;9.50;;
52210;SDS011;38179;52.756;6.906;2023-12-29T13:22:07;15.02;;;8.82;;
52210;SDS011;38179;52.756;6.906;2023-12-29T13:24:34;16.23;;;9.13;;
52210;SDS011;38179;52.756;6.906;2023-12-29T13:27:06;17.45;;;8.93;;
52210;SDS011;38179;52.756;6.906;2023-12-29T13:29:35;19.27;;;9.50;;
52210;SDS011;38179;52.756;6.906;2023-12-29T13:32:24;15.43;;;9.10;;
52210;SDS011;38179;52.756;6.906;2023-12-29T13:35:11;19.60;;;9.65;;
52210;SDS011;38179;52.756;6.906;2023-12-29T13:37:45;15.10;;;8.95;;
52210;SDS011;38179;52.756;6.906;2023-12-29T13:40:23;15.90;;;10.00;;
52210;SDS011;38179;52.756;6.906;2023-12-29T13:42:54;12.77;;;9.07;;
52210;SDS011;38179;52.756;6.906;2023-12-29T13:45:24;15.00;;;8.50;;
52210;SDS011;38179;52.756;6.906;2023-12-29T13:47:51;12.27;;;8.88;;
52210;SDS011;38179;52.756;6.906;2023-12-29T13:50:18;15.43;;;8.98;;
52210;SDS011;38179;52.756;6.906;2023-12-29T13:52:44;19.45;;;9.10;;
52210;SDS011;38179;52.756;6.906;2023-12-29T13:55:10;13.82;;;8.55;;
52210;SDS011;38179;52.756;6.906;2023-12-29T13:57:36;15.60;;;9.55;;
52210;SDS011;38179;52.756;6.906;2023-12-29T14:05:28;16.40;;;9.52;;
52210;SDS011;38179;52.756;6.906;2023-12-29T14:08:00;14.45;;;8.73;;
52210;SDS011;38179;52.756;6.906;2023-12-29T14:10:30;18.17;;;8.90;;
52210;SDS011;38179;52.756;6.906;2023-12-29T14:13:06;17.25;;;8.93;;
52210;SDS011;38179;52.756;6.906;2023-12-29T14:15:38;15.30;;;9.15;;
52210;SDS011;38179;52.756;6.906;2023-12-29T14:18:27;12.75;;;8.93;;
52210;SDS011;38179;52.756;6.906;2023-12-29T14:21:20;15.40;;;9.43;;
52210;SDS011;38179;52.756;6.906;2023-12-29T14:26:37;13.45;;;8.80;;
52210;SDS011;38179;52.756;6.906;2023-12-29T14:29:06;15.75;;;8.77;;
52210;SDS011;38179;52.756;6.906;2023-12-29T14:34:04;12.38;;;8.80;;
52210;SDS011;38179;52.756;6.906;2023-12-29T14:36:31;17.35;;;9.43;;
52210;SDS011;38179;52.756;6.906;2023-12-29T14:38:57;14.38;;;9.05;;
52210;SDS011;38179;52.756;6.906;2023-12-29T14:41:24;17.52;;;9.25;;
52210;SDS011;38179;52.756;6.906;2023-12-29T14:43:50;14.07;;;9.07;;
52210;SDS011;38179;52.756;6.906;2023-12-29T14:46:16;15.27;;;9.50;;
52210;SDS011;38179;52.756;6.906;2023-12-29T14:48:42;17.60;;;8.85;;
52210;SDS011;38179;52.756;6.906;2023-12-29T14:51:08;14.93;;;9.13;;
52210;SDS011;38179;52.756;6.906;2023-12-29T14:53:34;13.70;;;8.52;;
52210;SDS011;38179;52.756;6.906;2023-12-29T14:56:00;14.48;;;9.05;;
52210;SDS011;38179;52.756;6.906;2023-12-29T14:58:26;17.40;;;9.27;;
52210;SDS011;38179;52.756;6.906;2023-12-29T15:00:52;14.90;;;8.90;;
52210;SDS011;38179;52.756;6.906;2023-12-29T15:03:18;17.58;;;9.20;;
52210;SDS011;38179;52.756;6.906;2023-12-29T15:05:46;19.38;;;9.27;;